Armourdale, North Dakota
Current Conditions -  °F | °C
As of 1:15 AM on Saturday 29 Nov 2014 (Local Time) from K06D Reporting Station
Light Snow Light Snow  
Wind Chill: 10°   Ceiling: 500
Heat Index: 10°   Visibility: 10mi
Dew Point: 10°   Wind: 3mph
Humidity: 100%   Direction: 120°ESE
Pressure: 29.43"   Gusts: NA
Location:  48.8584°N, 99.1311°W
Report Text: K06D 290715Z AUTO 12003KT 10SM -SN OVC005 M12/M12 A2943 RMK AO2
Loading
Personal Weather Stations






























Interactive Weather Map New forecast layout! Learn more

10-Day Weather Forecast

Advertisements
Track Severe Weather on mobile